Flight Track Log - Related Links

Times and Time Zones

All times are in EDT time to prevent confusion due to time zone crossing. See the NKS244 flight status page for this flight to view local times or setup timezone preferences in your user account.

Time Position Orientation Groundspeed Altitude Reporting Facility
EDT Latitude Longitude Course Direction KTS MPH feet Rate Location/Type
Sun 04:07:32 PM 22.9240 -84.3531 47° Northeast  Level FlightAware Approximate
Sun 04:08:00 PM 23.3492 -83.8544 48° Northeast 460 529 37,000  Level Miami Center
Sun 04:13:01 PM 23.7817 -83.3272 47° Northeast 467 537 36,900 -17 Descending Miami Center
Sun 04:14:01 PM 23.8697 -83.2228 51° Northeast 467 537 36,900  Level Miami Center
Sun 04:15:00 PM 23.9492 -83.1158 48° Northeast 467 537 36,900  Level Miami Center
Sun 04:16:01 PM 24.0350 -83.0108 17° North 467 537 36,900 50 Level Miami Center
Sun 04:17:01 PM 24.1556 -82.9714 357° North 440 506 37,000  Climbing Miami Center
Sun 04:18:01 PM 24.2806 -82.9775 358° North 429 494 36,900 -500 Descending Miami Center
Sun 04:19:01 PM 24.4033 -82.9833 356° North 429 494 36,000 -950 Descending Miami Center
Sun 04:20:01 PM 24.5325 -82.9922 356° North 440 506 35,000 -1,000 Descending Miami Center
Sun 04:21:01 PM 24.6553 -83.0006 357° North 440 506 34,000 -1,000 Descending Miami Center
Sun 04:22:01 PM 24.7803 -83.0089 355° North 440 506 33,000 -1,100 Descending Miami Center
Sun 04:23:01 PM 24.9028 -83.0197 357° North 440 506 31,800 -1,210 Descending Miami Center
Sun 04:24:00 PM 25.0258 -83.0258 356° North 440 506 30,600 -1,050 Descending Miami Center
Sun 04:25:01 PM 25.1297 -83.0333 357° North 435 501 29,700 -1,041 Descending Miami Center
Sun 04:26:01 PM 25.2486 -83.0394 357° North 422 486 28,500 -1,210 Descending Miami Center
Sun 04:27:00 PM 25.3653 -83.0453 356° North 416 479 27,300 -756 Descending Miami Center
Sun 04:28:00 PM 25.4756 -83.0533 44° Northeast 411 473 27,000 -200 Descending Miami Center
Sun 04:29:00 PM 25.5542 -82.9697 99° East 370 426 26,900 -50 Descending Miami Center
Sun 04:30:01 PM 25.5344 -82.8378 151° Southeast 319 367 26,900  Level Miami Center
Sun 04:31:01 PM 25.4347 -82.7775 159° South 288 331 26,900  Level Miami Center
Sun 04:32:01 PM 25.3300 -82.7336 156° South 332 382 26,900 50 Level Miami Center
Sun 04:33:01 PM 25.2339 -82.6853 157° South 363 418 27,000  Climbing Miami Center
Sun 04:34:01 PM 25.1353 -82.6392 156° South 381 438 26,900  Descending Miami Center
Sun 04:35:01 PM 25.0369 -82.5911 157° South 387 445 27,000 -350 Climbing Miami Center
Sun 04:36:01 PM 24.9386 -82.5453 157° South 387 445 26,200 -1,210 Descending Miami Center
Sun 04:37:00 PM 24.8278 -82.4922 154° Southeast 394 453 24,600 -1,150 Descending Miami Center
Sun 04:38:01 PM 24.7439 -82.4472 142° Southeast 389 448 23,900 -347 Descending Miami Center
Sun 04:39:01 PM 24.6611 -82.3772 81° East 389 448 23,900 50 Level Miami Center
Sun 04:40:01 PM 24.6781 -82.2544 49° Northeast 343 395 24,000 50 Climbing Miami Center
Sun 04:41:01 PM 24.7547 -82.1572 53° Northeast 322 371 24,000  Level Miami Center
Sun 04:42:01 PM 24.8250 -82.0550 53° Northeast 368 423 24,000 -50 Level Miami Center
Sun 04:43:01 PM 24.8956 -81.9528 55° Northeast 400 460 23,900  Descending Miami Center
Sun 04:44:01 PM 24.9639 -81.8456 56° Northeast 413 475 24,000  Climbing Miami Center
Sun 04:45:01 PM 25.0281 -81.7406 54° Northeast 420 483 23,900 -50 Descending Miami Center
Sun 04:46:01 PM 25.0961 -81.6356 57° Northeast 420 483 23,900 50 Level Miami Center
Sun 04:47:00 PM 25.1600 -81.5278 53° Northeast 420 483 24,000 -1,050 Climbing Miami Center
Sun 04:48:01 PM 25.2322 -81.4228 55° Northeast 420 483 21,800 -2,430 Descending Miami Center
Sun 04:49:01 PM 25.2983 -81.3172 56° Northeast 420 483 19,100 -1,500 Descending Miami Center
Sun 04:50:01 PM 25.3619 -81.2139 54° Northeast 415 478 18,800 -50 Descending Miami Center
Sun 04:51:01 PM 25.4253 -81.1172 55° Northeast 407 468 19,000 50 Climbing Miami Center
Sun 04:52:01 PM 25.4778 -81.0339 55° Northeast 366 421 18,900 -50 Descending Miami Center
Sun 04:53:01 PM 25.5236 -80.9619 57° Northeast 316 364 18,900  Level Miami Center
Sun 04:54:01 PM 25.5653 -80.8919 125° Southeast 283 326 18,900 50 Level Miami Center
Sun 04:55:01 PM 25.5253 -80.8283 221° Southwest 221 254 19,000 50 Climbing Miami Center
Sun 04:56:01 PM 25.4717 -80.8797 246° West 121 139 19,000 -50 Level Miami Center
Sun 04:57:01 PM 25.4403 -80.9567 315° West 188 216 18,900  Descending Miami Center
Sun 04:58:01 PM 25.4869 -81.0089 46° Northeast 190 219 19,000  Climbing Miami Center
Sun 04:59:01 PM 25.5386 -80.9486 69° East 126 145 18,900 -50 Descending Miami Center
Sun 05:00:01 PM 25.5658 -80.8689 152° Southeast 177 204 18,900 50 Level Miami Center
Sun 05:01:01 PM 25.5042 -80.8322 235° Southwest 169 194 19,000 50 Climbing Miami Center
Sun 05:02:01 PM 25.4628 -80.8978 253° West 130 150 19,000  Level Miami Center
Sun 05:03:01 PM 25.4419 -80.9753 338° Northwest 203 234 19,000 -50 Level Miami Center
Sun 05:04:01 PM 25.5036 -81.0028 57° Northeast 164 189 18,900  Descending Miami Center
Sun 05:05:01 PM 25.5453 -80.9328 80° East 138 159 19,000 50 Climbing Miami Center
Sun 05:06:01 PM 25.5581 -80.8525 170° South 197 227 19,000  Level Miami Center
Sun 05:07:01 PM 25.4894 -80.8389 241° Southwest 169 194 19,000  Level Miami Center
Sun 05:08:01 PM 25.4542 -80.9089 261° West 156 180 19,000  Level Miami Center
Sun 05:09:01 PM 25.4436 -80.9867 349° North 202 232 19,000  Level Miami Center
Sun 05:10:01 PM 25.5100 -81.0006 66° East 156 180 19,000 -50 Level Miami Center
Sun 05:11:01 PM 25.5414 -80.9211 84° East 133 153 18,900  Descending Miami Center
Sun 05:12:01 PM 25.5500 -80.8361 168° South 208 239 19,000 50 Climbing Miami Center
Sun 05:13:01 PM 25.4836 -80.8203 252° West 170 196 19,000  Level Miami Center
Sun 05:14:01 PM 25.4606 -80.9000 248° West 137 158 19,000  Level Miami Center
Sun 05:15:01 PM 25.4333 -80.9750 244° Southwest 204 235 19,000  Level Miami Center
Sun 05:16:01 PM 25.4000 -81.0519 298° West 250 288 19,000  Level Miami Center
Sun 05:17:01 PM 25.4294 -81.1128 26° Northeast 255 293 19,000  Level Miami Center
Sun 05:18:01 PM 25.4889 -81.0803 70° East 148 170 19,000 -50 Level Miami Center
Sun 05:19:01 PM 25.5164 -80.9983 109° East 174 200 18,900  Descending Miami Center
Sun 05:20:01 PM 25.4933 -80.9242 211° Southwest 202 232 19,000 50 Climbing Miami Center
Sun 05:21:01 PM 25.4339 -80.9633 252° West 132 152 19,000  Level Miami Center
Sun 05:22:01 PM 25.4108 -81.0408 273° West 172 198 19,000 -400 Level Miami Center
Sun 05:23:01 PM 25.4147 -81.1214 299° West 217 250 18,200 -1,000 Descending Miami Center
Sun 05:24:01 PM 25.4522 -81.1964 306° West 244 281 17,000 -1,200 Descending Miami Center
Sun 05:25:01 PM 25.4981 -81.2669 314° West 259 298 15,800 -1,200 Descending Miami Center
Sun 05:26:01 PM 25.5506 -81.3264 338° Northwest 271 312 14,600 -1,100 Descending Miami Center
Sun 05:27:01 PM 25.6186 -81.3567 339° North 264 304 13,600 -1,000 Descending Miami Center
Sun 05:28:01 PM 25.6886 -81.3869 338° Northwest 264 304 12,600 -1,000 Descending Miami Center
Sun 05:29:01 PM 25.7544 -81.4172 341° North 264 304 11,600 -1,000 Descending Miami Center
Sun 05:30:01 PM 25.8206 -81.4428 337° Northwest 259 298 10,600 -800 Descending Miami Center
Sun 05:31:01 PM 25.8906 -81.4753 338° Northwest 249 287 10,000 -300 Descending Miami Center
Sun 05:32:01 PM 25.9647 -81.5083 346° North 255 293 10,000  Level Miami Center
Sun 05:33:01 PM 26.0414 -81.5297 348° North 270 311 10,000 -350 Level Miami Center
Sun 05:34:01 PM 26.1200 -81.5489 355° North 276 318 9,300 -1,100 Descending Miami Center
Sun 05:35:01 PM 26.1992 -81.5567 North 281 323 7,800 -1,500 Descending Miami Center
Sun 05:36:01 PM 26.2786 -81.5553 356° North 274 315 6,300 -1,300 Descending Miami Center
Sun 05:37:01 PM 26.3494 -81.5603 317° Northwest 269 310 5,200 -1,100 Descending Miami Center
Sun 05:44:32 PM 26.5333 -81.7500 302° West  Level FlightAware Approximate
Sun 05:45:32 PM 26.5945 -81.8616 121° Southeast  Level Estimated
Sun 05:46:32 PM 26.5333 -81.7500 302° West  Level FlightAware Approximate
Sun 05:47:32 PM 26.5945 -81.8616 121° Southeast  Level Estimated
Sun 05:48:32 PM 26.5333 -81.7500 302° West  Level FlightAware Approximate
Sun 05:49:32 PM 26.5945 -81.8616 121° Southeast  Level Estimated
Sun 05:50:32 PM 26.5333 -81.7500 302° West  Level FlightAware Approximate
Sun 05:51:32 PM 26.5945 -81.8616 302° West  Level Estimated

Login

Don't have an account? Register now (free) for customized features, flight alerts, and more!